Atlantic Tiger — 7JFT — position and weather

sailwx.info

Track history (hours):
 
Tides and Currents Weather Stations Pressure Air Temp Water Temp Dewpoint Dewpoint Depression Visibility Wind Speed Wind Dir Waves Ship Positions

Atlantic Tiger

Last reported at 2018-Feb-06 11:36 UTC. Time now 2018-Feb-22 01:08 UTC.
Position N 25°00' E 123°46'.
Warning: this ship's position is 15 days out of date.

Length 289 m; draft 16 m.

Type: Ship. MMSI: 432719000.

Date/timePositionNaut miles runAvg speedWind from/ knotsBaromVisibWave heightAir tempDewpointWater temp
2018-Feb-06 11:36N 25°00' E 123°46'111.7
2018-Feb-06 11:30N 24°59' E 123°45'611.7
2018-Feb-06 11:00N 24°54' E 123°43'611.9
2018-Feb-06 10:30N 24°48' E 123°40'1212.0
2018-Feb-06 09:30N 24°37' E 123°36'1211.7
2018-Feb-06 08:30N 24°27' E 123°30'1711.2
2018-Feb-06 07:00N 24°12' E 123°22'510.8
2018-Feb-06 06:30N 24°07' E 123°20'2811.4
2018-Feb-06 04:00N 23°40' E 123°08'611.4
2018-Feb-06 03:29N 23°35' E 123°06'  
2018-Jan-30 00:23N 01°15' E 104°08'8 4.1
2018-Jan-29 22:22N 01°17' E 103°60'0 0.0
2018-Jan-29 21:58N 01°17' E 103°60'0 0.0
2018-Jan-29 21:28N 01°17' E 103°60'0 0.0
2018-Jan-29 20:19N 01°17' E 103°60'0 0.0
2018-Jan-29 19:13N 01°17' E 103°60'0 0.0
2018-Jan-29 18:58N 01°17' E 103°60'0 0.0
2018-Jan-29 18:01N 01°17' E 103°60'0 0.0
2018-Jan-29 17:55N 01°17' E 103°60'0 0.0
2018-Jan-29 16:49N 01°17' E 103°60'0 0.0
2018-Jan-29 16:16N 01°17' E 103°60'0 0.1
2018-Jan-29 15:46N 01°17' E 104°00'0 0.1
2018-Jan-29 15:13N 01°17' E 103°60'0 0.0
2018-Jan-29 14:52N 01°17' E 103°60'0 0.1
2018-Jan-29 13:40N 01°17' E 104°00'0 0.0
2018-Jan-29 13:10N 01°17' E 104°00'0 0.1
2018-Jan-29 12:58N 01°17' E 104°00'0 0.2
2018-Jan-29 11:04N 01°17' E 104°00'0 0.6
2018-Jan-29 10:58N 01°17' E 104°00'0 0.0
2018-Jan-29 10:25N 01°17' E 104°00'0 0.0
2018-Jan-29 08:13N 01°17' E 104°00'0 0.0
2018-Jan-29 05:25N 01°17' E 104°00'0 0.0
2018-Jan-29 04:58N 01°17' E 104°00'0 0.1
2018-Jan-29 01:09N 01°17' E 104°00'0 0.0
2018-Jan-29 01:00N 01°17' E 104°00'0 0.2
2018-Jan-29 00:30N 01°17' E 103°60'2 4.4
2018-Jan-28 23:59N 01°16' E 103°58'2 3.4
2018-Jan-28 23:30N 01°15' E 103°57'2 3.7
2018-Jan-28 23:00N 01°13' E 103°56'2 3.4
2018-Jan-28 22:30N 01°13' E 103°54'2 4.6
2018-Jan-28 21:59N 01°12' E 103°52'2 4.4
2018-Jan-28 21:30N 01°11' E 103°50'2 4.2
2018-Jan-28 21:00N 01°10' E 103°48'2 3.9
2018-Jan-28 20:29N 01°09' E 103°46'2 4.1
2018-Jan-28 20:00N 01°07' E 103°45'3 5.9
2018-Jan-28 19:30N 01°05' E 103°43'2 4.7
2018-Jan-28 18:59N 01°04' E 103°41'2 3.9
2018-Jan-28 18:30N 01°03' E 103°39'2 4.4
2018-Jan-28 18:00N 01°04' E 103°37'2 4.3
2018-Jan-28 17:26N 01°04' E 103°35'4 4.8
2018-Jan-28 16:40N 01°06' E 103°31'2 5.8
2018-Jan-28 16:22N 01°07' E 103°30'3 6.4
2018-Jan-28 15:55N 01°09' E 103°28'3 7.0
2018-Jan-28 15:28N 01°11' E 103°25'4 7.3
2018-Jan-28 14:56N 01°14' E 103°23'4 7.9
2018-Jan-28 14:25N 01°17' E 103°20'4 7.6
2018-Jan-28 13:55N 01°19' E 103°17'  
Track history (hours):
 
Tides and Currents Weather Stations Pressure Air Temp Water Temp Dewpoint Dewpoint Depression Visibility Wind Speed Wind Dir Waves Ship Positions

Atlantic Tiger

Last reported at 2018-Feb-06 11:36 UTC. Time now 2018-Feb-22 01:08 UTC.
Position N 25°00' E 123°46'.
Warning: this ship's position is 15 days out of date.

Length 289 m; draft 16 m.

Type: Ship. MMSI: 432719000.

Date/timePositionNaut miles runAvg speedWind from/ knotsBaromVisibWave heightAir tempDewpointWater temp
2018-Feb-06 11:36N 25°00' E 123°46'111.7
2018-Feb-06 11:30N 24°59' E 123°45'611.7
2018-Feb-06 11:00N 24°54' E 123°43'611.9
2018-Feb-06 10:30N 24°48' E 123°40'1212.0
2018-Feb-06 09:30N 24°37' E 123°36'1211.7
2018-Feb-06 08:30N 24°27' E 123°30'1711.2
2018-Feb-06 07:00N 24°12' E 123°22'510.8
2018-Feb-06 06:30N 24°07' E 123°20'2811.4
2018-Feb-06 04:00N 23°40' E 123°08'611.4
2018-Feb-06 03:29N 23°35' E 123°06'  
2018-Jan-30 00:23N 01°15' E 104°08'8 4.1
2018-Jan-29 22:22N 01°17' E 103°60'0 0.0
2018-Jan-29 21:58N 01°17' E 103°60'0 0.0
2018-Jan-29 21:28N 01°17' E 103°60'0 0.0
2018-Jan-29 20:19N 01°17' E 103°60'0 0.0
2018-Jan-29 19:13N 01°17' E 103°60'0 0.0
2018-Jan-29 18:58N 01°17' E 103°60'0 0.0
2018-Jan-29 18:01N 01°17' E 103°60'0 0.0
2018-Jan-29 17:55N 01°17' E 103°60'0 0.0
2018-Jan-29 16:49N 01°17' E 103°60'0 0.0
2018-Jan-29 16:16N 01°17' E 103°60'0 0.1
2018-Jan-29 15:46N 01°17' E 104°00'0 0.1
2018-Jan-29 15:13N 01°17' E 103°60'0 0.0
2018-Jan-29 14:52N 01°17' E 103°60'0 0.1
2018-Jan-29 13:40N 01°17' E 104°00'0 0.0
2018-Jan-29 13:10N 01°17' E 104°00'0 0.1
2018-Jan-29 12:58N 01°17' E 104°00'0 0.2
2018-Jan-29 11:04N 01°17' E 104°00'0 0.6
2018-Jan-29 10:58N 01°17' E 104°00'0 0.0
2018-Jan-29 10:25N 01°17' E 104°00'0 0.0
2018-Jan-29 08:13N 01°17' E 104°00'0 0.0
2018-Jan-29 05:25N 01°17' E 104°00'0 0.0
2018-Jan-29 04:58N 01°17' E 104°00'0 0.1
2018-Jan-29 01:09N 01°17' E 104°00'0 0.0
2018-Jan-29 01:00N 01°17' E 104°00'0 0.2
2018-Jan-29 00:30N 01°17' E 103°60'2 4.4
2018-Jan-28 23:59N 01°16' E 103°58'2 3.4
2018-Jan-28 23:30N 01°15' E 103°57'2 3.7
2018-Jan-28 23:00N 01°13' E 103°56'2 3.4
2018-Jan-28 22:30N 01°13' E 103°54'2 4.6
2018-Jan-28 21:59N 01°12' E 103°52'2 4.4
2018-Jan-28 21:30N 01°11' E 103°50'2 4.2
2018-Jan-28 21:00N 01°10' E 103°48'2 3.9
2018-Jan-28 20:29N 01°09' E 103°46'2 4.1
2018-Jan-28 20:00N 01°07' E 103°45'3 5.9
2018-Jan-28 19:30N 01°05' E 103°43'2 4.7
2018-Jan-28 18:59N 01°04' E 103°41'2 3.9
2018-Jan-28 18:30N 01°03' E 103°39'2 4.4
2018-Jan-28 18:00N 01°04' E 103°37'2 4.3
2018-Jan-28 17:26N 01°04' E 103°35'4 4.8
2018-Jan-28 16:40N 01°06' E 103°31'2 5.8
2018-Jan-28 16:22N 01°07' E 103°30'3 6.4
2018-Jan-28 15:55N 01°09' E 103°28'3 7.0
2018-Jan-28 15:28N 01°11' E 103°25'4 7.3
2018-Jan-28 14:56N 01°14' E 103°23'4 7.9
2018-Jan-28 14:25N 01°17' E 103°20'4 7.6
2018-Jan-28 13:55N 01°19' E 103°17'  

Dump ship's entire track history